createdAt,value
2022-08-05T00:00:51.811Z,62.64
2022-08-05T00:01:53.670Z,62.45
2022-08-05T00:02:55.617Z,62.35
2022-08-05T00:03:57.634Z,62.27
2022-08-05T00:04:59.599Z,62.32
2022-08-05T00:06:04.908Z,61.75
2022-08-05T00:07:58.930Z,61.37
2022-08-05T00:08:45.601Z,61.31
2022-08-05T00:09:49.211Z,61.05
2022-08-05T00:10:50.853Z,60.92
2022-08-05T00:11:56.079Z,60.78
2022-08-05T00:13:01.713Z,60.87
2022-08-05T00:14:11.981Z,61.08
2022-08-05T00:15:55.876Z,60.60
2022-08-05T00:16:52.595Z,60.32
2022-08-05T00:17:54.936Z,60.19
2022-08-05T00:18:56.769Z,60.17
2022-08-05T00:20:02.816Z,60.05
2022-08-05T00:21:06.860Z,59.75
2022-08-05T00:22:11.129Z,59.63
2022-08-05T00:23:13.384Z,59.64
2022-08-05T00:24:16.068Z,59.59
2022-08-05T00:25:20.738Z,59.62
2022-08-05T00:26:22.557Z,59.28
2022-08-05T00:27:28.398Z,59.26
2022-08-05T00:28:37.737Z,59.53
2022-08-05T00:29:41.489Z,59.72
2022-08-05T00:30:44.074Z,60.10
2022-08-05T00:32:10.471Z,59.76
2022-08-05T00:34:42.007Z,59.70
2022-08-05T00:34:55.634Z,59.81
2022-08-05T00:36:16.017Z,59.90
2022-08-05T00:37:14.255Z,59.87
2022-08-05T00:38:16.225Z,59.80
2022-08-05T00:39:41.603Z,59.94
2022-08-05T00:40:55.003Z,60.34
2022-08-05T00:41:56.695Z,60.15
2022-08-05T00:43:02.165Z,60.35
2022-08-05T00:44:05.102Z,60.33
2022-08-05T00:45:11.854Z,60.53
2022-08-05T00:46:15.257Z,60.44
2022-08-05T00:47:17.648Z,60.60
2022-08-05T00:48:27.412Z,60.77
2022-08-05T00:49:44.790Z,60.76
2022-08-05T00:50:54.278Z,61.01
2022-08-05T00:51:55.957Z,60.98
2022-08-05T00:52:57.704Z,61.21
2022-08-05T00:54:02.803Z,61.38
2022-08-05T00:55:05.487Z,61.14
2022-08-05T00:56:08.262Z,61.55
2022-08-05T00:57:10.015Z,61.59
2022-08-05T00:58:13.849Z,61.87
2022-08-05T00:59:15.476Z,61.53
2022-08-05T01:00:17.330Z,61.77
2022-08-05T01:01:24.958Z,62.05
2022-08-05T01:02:43.458Z,62.30
2022-08-05T01:03:45.757Z,62.34
2022-08-05T01:04:51.772Z,62.45
2022-08-05T01:05:54.624Z,62.69
2022-08-05T01:06:57.072Z,62.74
2022-08-05T01:08:40.575Z,62.94
2022-08-05T01:09:20.532Z,63.49
2022-08-05T01:10:38.529Z,63.32
2022-08-05T01:11:42.130Z,63.69
2022-08-05T01:13:00.408Z,63.57
2022-08-05T01:14:33.769Z,63.87
2022-08-05T01:15:47.900Z,63.93
2022-08-05T01:17:02.141Z,63.98
2022-08-05T01:18:09.590Z,64.30
2022-08-05T01:19:56.650Z,64.56
2022-08-05T01:21:38.135Z,64.42
2022-08-05T01:23:15.253Z,64.63
2022-08-05T01:24:39.355Z,64.41
2022-08-05T01:26:12.854Z,64.46
2022-08-05T01:27:28.941Z,64.73
2022-08-05T01:28:43.989Z,64.64
2022-08-05T01:29:49.940Z,64.91
2022-08-05T01:30:59.528Z,64.91
2022-08-05T01:32:12.323Z,64.83
2022-08-05T01:33:19.734Z,65.12
2022-08-05T01:34:32.206Z,65.43
2022-08-05T01:35:51.596Z,65.20
2022-08-05T01:37:25.083Z,65.23
2022-08-05T01:38:30.249Z,65.39
2022-08-05T01:39:46.573Z,65.35
2022-08-05T01:40:52.854Z,65.31
2022-08-05T01:41:58.740Z,65.32
2022-08-05T01:43:03.577Z,65.34
2022-08-05T01:44:09.863Z,65.27
2022-08-05T01:45:16.830Z,65.58
2022-08-05T01:46:42.077Z,65.64
2022-08-05T01:47:46.572Z,65.92
2022-08-05T01:48:52.774Z,65.86
2022-08-05T01:50:02.815Z,65.77
2022-08-05T01:51:12.157Z,66.01
2022-08-05T01:52:17.939Z,66.23
2022-08-05T01:53:55.151Z,66.26
2022-08-05T01:54:55.935Z,66.58
2022-08-05T01:56:04.517Z,66.75
2022-08-05T01:58:10.212Z,66.96
2022-08-05T01:58:44.651Z,67.22
2022-08-05T01:59:58.528Z,67.27
2022-08-05T02:01:03.220Z,67.38
2022-08-05T02:02:07.445Z,67.48
2022-08-05T02:03:38.973Z,67.53
2022-08-05T02:04:46.146Z,68.05
2022-08-05T02:05:57.884Z,68.31
2022-08-05T02:07:03.420Z,68.24
2022-08-05T02:08:06.000Z,68.45
2022-08-05T02:09:08.512Z,68.56
2022-08-05T02:10:17.317Z,68.57
2022-08-05T02:11:23.834Z,68.70
2022-08-05T02:12:50.997Z,68.86
2022-08-05T02:14:13.035Z,69.36
2022-08-05T02:15:33.340Z,69.29
2022-08-05T02:16:52.853Z,69.50
2022-08-05T02:18:30.925Z,69.48
2022-08-05T02:19:34.268Z,69.81
2022-08-05T02:20:58.720Z,69.95
2022-08-05T02:22:25.651Z,70.12
2022-08-05T02:23:37.112Z,70.18
2022-08-05T02:24:48.038Z,70.14
2022-08-05T02:25:56.281Z,70.43
2022-08-05T02:27:10.152Z,70.42
2022-08-05T02:28:14.989Z,70.55
2022-08-05T02:29:26.174Z,70.68
2022-08-05T02:30:54.559Z,70.78
2022-08-05T02:31:58.775Z,70.86
2022-08-05T02:33:10.063Z,71.00
2022-08-05T02:34:16.955Z,70.98
2022-08-05T02:35:28.336Z,71.19
2022-08-05T02:36:41.192Z,71.21
2022-08-05T02:37:46.494Z,71.22
2022-08-05T02:38:53.386Z,71.32
2022-08-05T02:39:55.793Z,71.33
2022-08-05T02:41:00.142Z,71.60
2022-08-05T02:42:25.940Z,71.58
2022-08-05T02:43:32.434Z,71.39
2022-08-05T02:44:39.492Z,71.45
2022-08-05T02:45:52.688Z,71.50
2022-08-05T02:47:00.609Z,71.28
2022-08-05T02:48:11.716Z,71.36
2022-08-05T02:49:18.173Z,71.39
2022-08-05T02:50:26.390Z,71.63
2022-08-05T02:52:02.857Z,71.58
2022-08-05T02:52:53.803Z,71.65
2022-08-05T02:54:03.169Z,71.84
2022-08-05T02:55:10.824Z,72.23
2022-08-05T02:56:16.014Z,72.39
2022-08-05T02:58:11.545Z,72.38
2022-08-05T02:58:45.472Z,72.65
2022-08-05T02:59:54.394Z,72.66
2022-08-05T03:00:58.843Z,72.68
2022-08-05T03:02:02.892Z,72.68
2022-08-05T03:03:07.663Z,72.59
2022-08-05T03:04:15.776Z,72.74
2022-08-05T03:05:21.647Z,72.80
2022-08-05T03:06:55.387Z,72.80
2022-08-05T03:08:08.959Z,72.92
2022-08-05T03:09:17.963Z,72.91
2022-08-05T03:10:37.713Z,73.17
2022-08-05T03:11:55.639Z,73.02
2022-08-05T03:14:03.023Z,73.25
2022-08-05T03:15:09.157Z,73.43
2022-08-05T03:16:11.133Z,73.39
2022-08-05T03:17:17.461Z,73.41
2022-08-05T03:18:24.618Z,73.44
2022-08-05T03:19:34.184Z,73.49
2022-08-05T03:20:38.112Z,73.39
2022-08-05T03:21:49.722Z,73.48
2022-08-05T03:22:53.180Z,73.40
2022-08-05T03:24:00.590Z,73.56
2022-08-05T03:25:31.640Z,73.33
2022-08-05T03:26:30.938Z,73.29
2022-08-05T03:27:57.587Z,73.41
2022-08-05T03:28:56.350Z,73.49
2022-08-05T03:30:08.387Z,73.52
2022-08-05T03:31:11.199Z,73.47
2022-08-05T03:32:33.110Z,73.80
2022-08-05T03:33:51.032Z,73.61
2022-08-05T03:34:55.133Z,73.93
2022-08-05T03:35:58.750Z,73.88
2022-08-05T03:37:01.535Z,73.93
2022-08-05T03:38:03.962Z,74.07
2022-08-05T03:39:13.188Z,73.98
2022-08-05T03:40:31.264Z,74.29
2022-08-05T03:41:45.149Z,74.33
2022-08-05T03:42:52.388Z,74.31
2022-08-05T03:44:08.731Z,74.46
2022-08-05T03:45:22.762Z,74.64
2022-08-05T03:46:26.821Z,74.77
2022-08-05T03:47:35.356Z,74.75
2022-08-05T03:48:42.915Z,74.81
2022-08-05T03:49:52.027Z,74.74
2022-08-05T03:52:38.509Z,74.90
2022-08-05T03:55:34.462Z,74.69
2022-08-05T03:55:51.303Z,74.79
2022-08-05T03:56:33.090Z,74.83
2022-08-05T03:57:42.253Z,74.84
2022-08-05T03:58:47.592Z,74.92
2022-08-05T04:00:19.548Z,75.02
2022-08-05T04:01:25.268Z,75.02
2022-08-05T04:02:37.698Z,74.94
2022-08-05T04:04:10.259Z,74.85
2022-08-05T04:05:10.584Z,74.96
2022-08-05T04:06:12.795Z,74.83
2022-08-05T04:07:15.279Z,74.88
2022-08-05T04:08:34.630Z,74.78
2022-08-05T04:09:38.685Z,74.77
2022-08-05T04:10:58.095Z,74.69
2022-08-05T04:11:59.978Z,74.85
2022-08-05T04:13:03.420Z,74.74
2022-08-05T04:14:07.255Z,74.68
2022-08-05T04:15:10.743Z,74.87
2022-08-05T04:16:24.080Z,74.61
2022-08-05T04:17:55.475Z,74.68
2022-08-05T04:18:54.455Z,74.75
2022-08-05T04:19:58.738Z,74.74
2022-08-05T04:21:00.652Z,74.84
2022-08-05T04:22:09.957Z,74.85
2022-08-05T04:23:16.104Z,74.71
2022-08-05T04:24:19.555Z,74.83
2022-08-05T04:25:57.555Z,74.82
2022-08-05T04:26:46.216Z,74.55
2022-08-05T04:27:58.175Z,74.73
2022-08-05T04:29:07.320Z,74.74
2022-08-05T04:30:09.959Z,74.44
2022-08-05T04:31:11.680Z,74.50
2022-08-05T04:32:13.615Z,74.48
2022-08-05T04:33:17.538Z,74.63
2022-08-05T04:34:42.993Z,74.68
2022-08-05T04:36:16.356Z,74.46
2022-08-05T04:37:06.924Z,74.26
2022-08-05T04:38:09.086Z,74.09
2022-08-05T04:39:10.817Z,74.19
2022-08-05T04:40:14.703Z,74.10
2022-08-05T04:41:21.390Z,74.13
2022-08-05T04:42:38.280Z,74.01
2022-08-05T04:43:48.089Z,73.93
2022-08-05T04:44:53.742Z,74.10
2022-08-05T04:45:55.723Z,73.91
2022-08-05T04:46:59.526Z,73.83
2022-08-05T04:48:18.441Z,73.88
2022-08-05T04:49:38.807Z,73.67
2022-08-05T04:51:01.939Z,73.80
2022-08-05T04:52:06.421Z,74.08
2022-08-05T04:53:10.947Z,73.56
2022-08-05T04:54:14.710Z,73.23
2022-08-05T04:55:16.499Z,73.14
2022-08-05T04:56:35.191Z,73.17
2022-08-05T04:57:38.681Z,73.01
2022-08-05T04:58:40.818Z,73.11
2022-08-05T04:59:42.468Z,73.15
2022-08-05T05:00:50.825Z,73.28
2022-08-05T05:02:07.417Z,73.24
2022-08-05T05:03:14.725Z,73.21
2022-08-05T05:04:21.980Z,72.85
2022-08-05T05:05:28.258Z,73.16
2022-08-05T05:06:39.618Z,73.43
2022-08-05T05:07:46.060Z,72.81
2022-08-05T05:08:58.069Z,73.09
2022-08-05T05:10:05.401Z,72.90
2022-08-05T05:11:08.105Z,72.54
2022-08-05T05:12:09.769Z,72.21
2022-08-05T05:13:15.727Z,72.17
2022-08-05T05:14:17.647Z,71.88
2022-08-05T05:15:56.546Z,72.19
2022-08-05T05:16:51.585Z,71.91
2022-08-05T05:17:57.737Z,71.64
2022-08-05T05:19:19.530Z,71.53
2022-08-05T05:20:22.450Z,71.48
2022-08-05T05:21:29.834Z,71.42
2022-08-05T05:22:35.605Z,71.69
2022-08-05T05:24:03.781Z,72.04
2022-08-05T05:25:16.543Z,71.02
2022-08-05T05:26:19.739Z,70.86
2022-08-05T05:27:44.348Z,70.95
2022-08-05T05:28:50.493Z,71.07
2022-08-05T05:30:04.652Z,71.03
2022-08-05T05:31:08.881Z,70.66
2022-08-05T05:32:12.579Z,70.15
2022-08-05T05:33:17.699Z,70.35
2022-08-05T05:34:26.697Z,70.14
2022-08-05T05:35:34.274Z,69.92
2022-08-05T05:36:39.480Z,69.60
2022-08-05T05:38:01.450Z,69.06
2022-08-05T05:39:04.465Z,68.48
2022-08-05T05:40:07.112Z,68.27
2022-08-05T05:41:09.358Z,68.37
2022-08-05T05:42:14.025Z,68.70
2022-08-05T05:43:16.126Z,68.58
2022-08-05T05:44:35.777Z,67.64
2022-08-05T05:45:38.711Z,67.53
2022-08-05T05:46:49.987Z,66.17
2022-08-05T05:48:05.469Z,65.89
2022-08-05T05:49:13.534Z,65.73
2022-08-05T05:50:25.793Z,65.89
2022-08-05T05:51:28.004Z,65.16
2022-08-05T05:52:34.581Z,65.45
2022-08-05T05:53:54.541Z,65.45
2022-08-05T05:55:01.959Z,64.99
2022-08-05T05:56:09.580Z,64.84
2022-08-05T05:57:19.001Z,64.45
2022-08-05T05:58:21.585Z,64.39
2022-08-05T05:59:33.006Z,64.46
2022-08-05T06:00:42.108Z,64.45
2022-08-05T06:01:57.705Z,64.10
2022-08-05T06:03:02.319Z,63.61
2022-08-05T06:04:04.467Z,64.17
2022-08-05T06:05:16.521Z,64.14
2022-08-05T06:06:18.761Z,63.25
2022-08-05T06:07:24.328Z,62.99
2022-08-05T06:08:44.393Z,63.38
2022-08-05T06:10:01.659Z,63.50
2022-08-05T06:11:07.538Z,62.58
2022-08-05T06:12:09.555Z,62.39
2022-08-05T06:13:11.519Z,62.11
2022-08-05T06:14:13.907Z,61.98
2022-08-05T06:15:24.125Z,62.25
2022-08-05T06:16:29.202Z,62.71
2022-08-05T06:17:52.795Z,62.63
2022-08-05T06:18:55.498Z,62.84
2022-08-05T06:20:02.091Z,62.01
2022-08-05T06:21:04.898Z,61.55
2022-08-05T06:22:09.784Z,61.57
2022-08-05T06:23:11.425Z,61.85
2022-08-05T06:24:14.744Z,60.69
2022-08-05T06:25:59.324Z,60.55
2022-08-05T06:26:38.241Z,60.47
2022-08-05T06:28:09.158Z,60.35
2022-08-05T06:29:03.681Z,60.02
2022-08-05T06:30:23.311Z,60.03
2022-08-05T06:31:30.386Z,59.63
2022-08-05T06:32:32.407Z,60.08
2022-08-05T06:34:06.869Z,60.29
2022-08-05T06:34:58.674Z,59.42
2022-08-05T06:36:05.774Z,59.03
2022-08-05T06:37:11.137Z,58.92
2022-08-05T06:38:14.469Z,58.71
2022-08-05T06:39:17.826Z,58.43
2022-08-05T06:40:27.729Z,58.58
2022-08-05T06:41:29.969Z,58.67
2022-08-05T06:42:37.063Z,59.35
2022-08-05T06:43:58.763Z,58.90
2022-08-05T06:45:05.561Z,58.51
2022-08-05T06:46:10.091Z,58.48
2022-08-05T06:47:21.662Z,58.25
2022-08-05T06:48:55.314Z,57.97
2022-08-05T06:50:01.566Z,57.19
2022-08-05T06:51:09.513Z,57.33
2022-08-05T06:52:36.965Z,57.49
2022-08-05T06:53:39.315Z,57.75
2022-08-05T06:54:41.214Z,57.39
2022-08-05T06:55:42.959Z,56.82
2022-08-05T06:56:54.820Z,56.54
2022-08-05T06:58:20.008Z,56.95
2022-08-05T06:59:30.813Z,57.49
2022-08-05T07:00:41.159Z,56.98
2022-08-05T07:01:43.077Z,57.12
2022-08-05T07:02:47.883Z,56.17
2022-08-05T07:03:55.614Z,55.96
2022-08-05T07:04:57.278Z,55.94
2022-08-05T07:06:05.992Z,55.96
2022-08-05T07:07:15.735Z,55.42
2022-08-05T07:08:26.130Z,55.38
2022-08-05T07:09:32.301Z,55.52
2022-08-05T07:10:34.264Z,55.47
2022-08-05T07:11:37.095Z,55.35
2022-08-05T07:12:57.588Z,55.64
2022-08-05T07:14:29.716Z,55.70
2022-08-05T07:16:00.983Z,55.84
2022-08-05T07:18:01.615Z,54.64
2022-08-05T07:18:29.277Z,54.17
2022-08-05T07:20:16.710Z,54.07
2022-08-05T07:20:53.993Z,54.29
2022-08-05T07:21:59.856Z,54.52
2022-08-05T07:23:02.988Z,54.97
2022-08-05T07:24:11.212Z,54.70
2022-08-05T07:25:54.345Z,54.63
2022-08-05T07:26:34.922Z,54.77
2022-08-05T07:27:56.656Z,55.01
2022-08-05T07:28:59.770Z,54.52
2022-08-05T07:30:27.919Z,53.79
2022-08-05T07:31:54.196Z,53.52
2022-08-05T07:32:45.444Z,53.59
2022-08-05T07:33:54.988Z,53.13
2022-08-05T07:35:01.590Z,53.46
2022-08-05T07:36:23.334Z,52.55
2022-08-05T07:37:28.877Z,52.15
2022-08-05T07:38:34.460Z,52.10
2022-08-05T07:40:04.731Z,51.85
2022-08-05T07:41:04.533Z,51.92
2022-08-05T07:42:18.984Z,51.54
2022-08-05T07:43:33.702Z,50.85
2022-08-05T07:44:36.557Z,51.39
2022-08-05T07:45:57.136Z,51.73
2022-08-05T07:47:00.063Z,51.49
2022-08-05T07:48:02.442Z,51.67
2022-08-05T07:49:06.206Z,51.33
2022-08-05T07:50:10.028Z,51.00
2022-08-05T07:51:23.823Z,50.90
2022-08-05T07:52:39.873Z,50.77
2022-08-05T07:53:49.997Z,50.02
2022-08-05T07:54:53.046Z,50.26
2022-08-05T07:56:06.098Z,50.72
2022-08-05T07:57:51.372Z,50.29
2022-08-05T07:58:57.321Z,50.31
2022-08-05T08:00:00.209Z,49.97
2022-08-05T08:01:01.904Z,50.77
2022-08-05T08:02:16.499Z,50.59
2022-08-05T08:03:21.552Z,49.55
2022-08-05T08:04:37.318Z,48.59
2022-08-05T08:05:49.716Z,48.71
2022-08-05T08:06:51.677Z,48.35
2022-08-05T08:07:59.868Z,48.05
2022-08-05T08:09:02.268Z,48.56
2022-08-05T08:10:05.368Z,49.38
2022-08-05T08:11:08.940Z,49.00
2022-08-05T08:12:33.410Z,49.33
2022-08-05T08:13:49.298Z,48.67
2022-08-05T08:14:57.432Z,49.27
2022-08-05T08:16:35.215Z,47.80
2022-08-05T08:17:27.936Z,47.95
2022-08-05T08:18:32.001Z,47.96
2022-08-05T08:20:21.925Z,47.47
2022-08-05T08:21:03.201Z,47.74
2022-08-05T08:22:09.006Z,47.13
2022-08-05T08:23:59.663Z,46.66
2022-08-05T08:24:51.650Z,46.92
2022-08-05T08:26:00.653Z,46.99
2022-08-05T08:27:07.039Z,46.79
2022-08-05T08:28:17.975Z,47.07
2022-08-05T08:29:45.203Z,47.53
2022-08-05T08:30:47.973Z,47.00
2022-08-05T08:31:52.268Z,46.30
2022-08-05T08:32:54.054Z,46.05
2022-08-05T08:33:56.352Z,46.39
2022-08-05T08:34:58.751Z,45.76
2022-08-05T08:36:29.451Z,46.16
2022-08-05T08:37:28.075Z,46.54
2022-08-05T08:38:35.248Z,45.05
2022-08-05T08:39:38.142Z,44.77
2022-08-05T08:40:51.434Z,44.53
2022-08-05T08:42:02.482Z,44.59
2022-08-05T08:45:21.001Z,44.47
2022-08-05T08:45:21.241Z,44.36
2022-08-05T08:45:58.933Z,44.21
2022-08-05T08:47:03.834Z,43.84
2022-08-05T08:49:03.545Z,43.37
2022-08-05T08:50:06.011Z,43.95
2022-08-05T08:52:01.662Z,42.51
2022-08-05T08:52:51.636Z,42.57
2022-08-05T08:53:55.152Z,42.93
2022-08-05T08:54:57.810Z,42.62
2022-08-05T08:56:06.043Z,42.92
2022-08-05T08:57:11.548Z,42.62
2022-08-05T08:58:16.275Z,42.73
2022-08-05T08:59:20.934Z,42.22
2022-08-05T09:00:23.654Z,41.80
2022-08-05T09:01:28.377Z,42.12
2022-08-05T09:02:30.929Z,41.67
2022-08-05T09:03:45.381Z,41.03
2022-08-05T09:05:15.929Z,40.61
2022-08-05T09:06:11.643Z,41.06
2022-08-05T09:07:28.167Z,41.27
2022-08-05T09:08:30.538Z,41.44
2022-08-05T09:09:35.443Z,41.81
2022-08-05T09:10:41.340Z,42.38
2022-08-05T09:11:52.457Z,42.17
2022-08-05T09:13:04.717Z,41.04
2022-08-05T09:14:54.814Z,41.03
2022-08-05T09:15:30.490Z,41.43
2022-08-05T09:16:32.726Z,40.49
2022-08-05T09:17:40.486Z,39.58
2022-08-05T09:18:44.529Z,39.87
2022-08-05T09:20:01.374Z,40.39
2022-08-05T09:21:04.810Z,40.05
2022-08-05T09:22:31.090Z,40.75
2022-08-05T09:23:37.525Z,41.50
2022-08-05T09:25:13.793Z,40.76
2022-08-05T09:26:25.178Z,40.33
2022-08-05T09:28:05.053Z,40.51
2022-08-05T09:29:04.932Z,39.81
2022-08-05T09:30:07.318Z,39.32
2022-08-05T09:31:23.193Z,39.60
2022-08-05T09:32:51.104Z,39.85
2022-08-05T09:33:55.369Z,38.69
2022-08-05T09:34:58.990Z,39.50
2022-08-05T09:36:11.834Z,39.47
2022-08-05T09:38:11.653Z,39.60
2022-08-05T09:39:00.084Z,38.98
2022-08-05T09:40:04.794Z,39.50
2022-08-05T09:41:10.051Z,39.46
2022-08-05T09:42:17.400Z,40.62
2022-08-05T09:43:41.366Z,39.88
2022-08-05T09:44:50.501Z,40.37
2022-08-05T09:46:06.177Z,40.32
2022-08-05T09:47:16.529Z,39.02
2022-08-05T09:48:31.453Z,37.58
2022-08-05T09:49:54.593Z,37.75
2022-08-05T09:51:01.058Z,38.27
2022-08-05T09:52:27.468Z,36.91
2022-08-05T09:53:54.794Z,37.70
2022-08-05T09:54:56.833Z,37.52
2022-08-05T09:56:04.526Z,38.04
2022-08-05T09:57:23.150Z,37.70
2022-08-05T09:58:26.622Z,39.68
2022-08-05T09:59:35.016Z,38.50
2022-08-05T10:00:39.550Z,37.97
2022-08-05T10:01:46.491Z,37.85
2022-08-05T10:02:51.389Z,37.56
2022-08-05T10:04:00.230Z,37.75
2022-08-05T10:05:26.654Z,37.70
2022-08-05T10:06:29.276Z,38.26
2022-08-05T10:08:36.136Z,37.91
2022-08-05T10:09:27.329Z,37.30
2022-08-05T10:10:48.192Z,36.88
2022-08-05T10:11:51.987Z,37.52
2022-08-05T10:12:57.117Z,38.61
2022-08-05T10:13:58.774Z,37.62
2022-08-05T10:15:20.321Z,37.18
2022-08-05T10:16:41.773Z,36.77
2022-08-05T10:18:22.698Z,36.00
2022-08-05T10:20:02.695Z,36.79
2022-08-05T10:20:57.721Z,35.90
2022-08-05T10:21:59.433Z,36.04
2022-08-05T10:23:01.971Z,35.32
2022-08-05T10:24:10.585Z,35.42
2022-08-05T10:25:14.396Z,36.38
2022-08-05T10:26:16.473Z,36.19
2022-08-05T10:27:19.003Z,36.17
2022-08-05T10:28:30.550Z,36.13
2022-08-05T10:30:06.784Z,36.42
2022-08-05T10:32:50.500Z,35.51
2022-08-05T10:32:55.447Z,36.29
2022-08-05T10:33:45.416Z,36.63
2022-08-05T10:34:55.376Z,36.55
2022-08-05T10:36:00.077Z,36.47
2022-08-05T10:37:02.454Z,34.82
2022-08-05T10:38:06.127Z,34.43
2022-08-05T10:39:24.915Z,34.68
2022-08-05T10:40:49.567Z,35.29
2022-08-05T10:42:00.485Z,34.54
2022-08-05T10:43:37.253Z,34.24
2022-08-05T10:44:45.875Z,34.45
2022-08-05T10:46:06.215Z,33.96
2022-08-05T10:47:26.938Z,34.87
2022-08-05T10:48:52.762Z,34.55
2022-08-05T10:50:32.863Z,34.12
2022-08-05T10:51:58.282Z,32.90
2022-08-05T10:53:02.260Z,33.70
2022-08-05T10:54:28.166Z,32.83
2022-08-05T10:55:27.771Z,33.56
2022-08-05T10:56:44.395Z,33.52
2022-08-05T10:57:47.124Z,34.98
2022-08-05T10:58:52.939Z,35.04
2022-08-05T11:00:09.902Z,33.71
2022-08-05T11:01:55.158Z,33.92
2022-08-05T11:03:24.371Z,32.45
2022-08-05T11:04:28.113Z,32.88
2022-08-05T11:05:34.645Z,32.18
2022-08-05T11:06:57.981Z,31.60
2022-08-05T11:08:21.756Z,30.99
2022-08-05T11:09:32.482Z,31.35
2022-08-05T11:10:50.258Z,31.23
2022-08-05T11:12:04.202Z,30.44
2022-08-05T11:13:06.879Z,30.48
2022-08-05T11:14:11.636Z,30.38
2022-08-05T11:15:20.479Z,30.74
2022-08-05T11:16:47.953Z,32.16
2022-08-05T11:18:00.279Z,32.99
2022-08-05T11:20:10.007Z,30.37
2022-08-05T11:20:53.784Z,31.09
2022-08-05T11:21:57.906Z,31.92
2022-08-05T11:23:06.112Z,30.92
2022-08-05T11:24:30.437Z,29.78
2022-08-05T11:26:05.698Z,29.24
2022-08-05T11:27:45.693Z,29.73
2022-08-05T11:28:54.987Z,28.94
2022-08-05T11:30:00.248Z,28.65
2022-08-05T11:31:01.820Z,29.89
2022-08-05T11:32:27.375Z,29.32
2022-08-05T11:33:54.761Z,28.86
2022-08-05T11:34:57.529Z,29.43
2022-08-05T11:36:02.907Z,28.31
2022-08-05T11:38:28.889Z,28.72
2022-08-05T11:38:45.748Z,28.95
2022-08-05T11:40:00.642Z,29.03
2022-08-05T11:41:56.547Z,29.40
2022-08-05T11:42:46.053Z,28.76
2022-08-05T11:44:06.503Z,29.67
2022-08-05T11:45:23.267Z,28.33
2022-08-05T11:46:34.047Z,28.75
2022-08-05T11:47:49.523Z,29.33
2022-08-05T11:48:52.268Z,28.28
2022-08-05T11:49:58.946Z,28.54
2022-08-05T11:51:01.788Z,28.59
2022-08-05T11:52:08.774Z,28.12
2022-08-05T11:53:13.383Z,28.07
2022-08-05T11:54:33.508Z,28.06
2022-08-05T11:55:36.685Z,28.13
2022-08-05T11:56:51.402Z,27.61
2022-08-05T11:58:09.676Z,27.91
2022-08-05T11:59:21.472Z,28.17
2022-08-05T12:00:31.261Z,27.93
2022-08-05T12:01:32.959Z,28.35
2022-08-05T12:02:36.246Z,27.69
2022-08-05T12:03:56.051Z,27.71
2022-08-05T12:04:59.724Z,27.16
2022-08-05T12:06:06.636Z,27.48
2022-08-05T12:07:14.811Z,26.57
2022-08-05T12:08:18.279Z,26.38
2022-08-05T12:09:38.562Z,27.46
2022-08-05T12:10:49.535Z,27.08
2022-08-05T12:11:54.455Z,26.58
2022-08-05T12:13:15.571Z,26.23
2022-08-05T12:14:19.408Z,26.50
2022-08-05T12:15:33.278Z,26.96
2022-08-05T12:16:45.373Z,26.55
2022-08-05T12:18:02.879Z,26.84
2022-08-05T12:19:08.671Z,27.56
2022-08-05T12:20:25.469Z,27.58
2022-08-05T12:21:32.482Z,26.96
2022-08-05T12:22:40.956Z,26.73
2022-08-05T12:23:54.915Z,26.83
2022-08-05T12:24:57.744Z,27.08
2022-08-05T12:25:59.375Z,26.16
2022-08-05T12:27:09.715Z,25.96
2022-08-05T12:28:37.689Z,25.74
2022-08-05T12:29:39.527Z,25.85
2022-08-05T12:30:46.038Z,25.25
2022-08-05T12:32:02.046Z,25.58
2022-08-05T12:33:07.452Z,25.19
2022-08-05T12:34:29.931Z,26.03
2022-08-05T12:35:39.438Z,26.41
2022-08-05T12:36:43.584Z,26.90
2022-08-05T12:37:47.197Z,27.14
2022-08-05T12:38:50.588Z,25.81
2022-08-05T12:39:53.793Z,26.16
2022-08-05T12:40:59.684Z,25.98
2022-08-05T12:42:01.622Z,25.80
2022-08-05T12:43:07.025Z,25.94
2022-08-05T12:44:21.579Z,26.76
2022-08-05T12:45:48.370Z,25.82
2022-08-05T12:46:54.432Z,25.55
2022-08-05T12:48:17.624Z,25.81
2022-08-05T12:49:19.058Z,26.32
2022-08-05T12:50:21.066Z,26.15
2022-08-05T12:52:14.199Z,25.55
2022-08-05T12:52:59.695Z,25.77
2022-08-05T12:54:03.962Z,25.29
2022-08-05T12:55:28.529Z,25.12
2022-08-05T12:56:40.827Z,24.94
2022-08-05T12:58:52.742Z,24.47
2022-08-05T12:59:13.968Z,23.87
2022-08-05T13:02:01.166Z,23.89
2022-08-05T13:02:06.975Z,24.08
2022-08-05T13:03:12.293Z,23.41
2022-08-05T13:04:21.202Z,23.25
2022-08-05T13:05:24.575Z,23.81
2022-08-05T13:06:41.193Z,23.87
2022-08-05T13:08:00.141Z,24.21
2022-08-05T13:09:10.379Z,23.87
2022-08-05T13:10:19.531Z,23.98
2022-08-05T13:11:59.844Z,23.42
2022-08-05T13:12:51.023Z,22.82
2022-08-05T13:14:06.467Z,22.75
2022-08-05T13:15:18.043Z,22.81
2022-08-05T13:16:28.047Z,22.74
2022-08-05T13:17:41.871Z,24.04
2022-08-05T13:18:58.761Z,23.38
2022-08-05T13:20:16.510Z,23.16
2022-08-05T13:21:20.909Z,22.98
2022-08-05T13:22:28.380Z,22.61
2022-08-05T13:23:31.581Z,22.98
2022-08-05T13:24:57.313Z,22.91
2022-08-05T13:26:01.362Z,23.28
2022-08-05T13:27:03.207Z,23.24
2022-08-05T13:28:06.445Z,23.46
2022-08-05T13:29:08.357Z,24.37
2022-08-05T13:30:34.868Z,23.72
2022-08-05T13:32:04.023Z,22.02
2022-08-05T13:33:01.633Z,22.54
2022-08-05T13:34:23.128Z,22.47
2022-08-05T13:35:42.674Z,23.22
2022-08-05T13:36:47.139Z,23.14
2022-08-05T13:37:55.402Z,23.48
2022-08-05T13:38:57.582Z,24.62
2022-08-05T13:40:14.583Z,25.11
2022-08-05T13:41:21.396Z,25.58
2022-08-05T13:42:27.491Z,25.14
2022-08-05T13:43:45.690Z,24.17
2022-08-05T13:44:55.597Z,23.90
2022-08-05T13:45:57.623Z,23.89
2022-08-05T13:47:04.759Z,24.73
2022-08-05T13:48:58.582Z,23.05
2022-08-05T13:49:35.377Z,23.15
2022-08-05T13:50:37.264Z,23.56
2022-08-05T13:51:41.371Z,23.55
2022-08-05T13:52:43.548Z,23.40
2022-08-05T13:53:47.947Z,22.57
2022-08-05T13:54:53.287Z,22.44
2022-08-05T13:56:00.166Z,22.93
2022-08-05T13:57:03.770Z,22.37
2022-08-05T13:58:07.989Z,22.27
2022-08-05T13:59:20.427Z,22.31
2022-08-05T14:00:27.519Z,22.72
2022-08-05T14:01:44.432Z,22.74
2022-08-05T14:02:51.298Z,22.56
2022-08-05T14:04:11.578Z,22.38
2022-08-05T14:05:29.550Z,22.60
2022-08-05T14:06:37.442Z,22.31
2022-08-05T14:07:59.742Z,22.26
2022-08-05T14:09:08.574Z,22.12
2022-08-05T14:10:30.873Z,23.04
2022-08-05T14:11:33.052Z,23.28
2022-08-05T14:12:54.808Z,23.38
2022-08-05T14:13:57.734Z,24.31
2022-08-05T14:14:59.931Z,24.41
2022-08-05T14:16:05.996Z,23.93
2022-08-05T14:17:16.882Z,24.01
2022-08-05T14:18:23.510Z,22.99
2022-08-05T14:19:25.841Z,22.51
2022-08-05T14:20:29.689Z,22.50
2022-08-05T14:22:09.997Z,22.70
2022-08-05T14:22:53.536Z,22.75
2022-08-05T14:23:55.168Z,23.04
2022-08-05T14:24:56.795Z,22.84
2022-08-05T14:25:59.663Z,21.95
2022-08-05T14:27:17.492Z,22.37
2022-08-05T14:28:26.923Z,20.84
2022-08-05T14:29:29.341Z,19.52
2022-08-05T14:30:33.087Z,19.91
2022-08-05T14:32:02.724Z,19.99
2022-08-05T14:32:57.129Z,19.61
2022-08-05T14:34:00.860Z,19.40
2022-08-05T14:35:04.219Z,18.19
2022-08-05T14:36:12.441Z,17.86
2022-08-05T14:37:14.170Z,18.75
2022-08-05T14:38:31.571Z,18.30
2022-08-05T14:39:49.234Z,17.92
2022-08-05T14:40:55.317Z,18.17
2022-08-05T14:42:19.527Z,17.83
2022-08-05T14:43:20.577Z,18.01
2022-08-05T14:44:42.245Z,17.92
2022-08-05T14:45:44.623Z,17.52
2022-08-05T14:46:46.317Z,17.26
2022-08-05T14:48:03.501Z,17.62
2022-08-05T14:49:08.333Z,16.86
2022-08-05T14:50:17.749Z,16.91
2022-08-05T14:51:20.442Z,17.36
2022-08-05T14:52:50.119Z,17.27
2022-08-05T14:54:06.676Z,17.21
2022-08-05T14:55:17.211Z,17.86
2022-08-05T14:56:22.849Z,18.32
2022-08-05T14:57:34.104Z,17.85
2022-08-05T14:58:53.010Z,18.14
2022-08-05T14:59:54.852Z,18.74
2022-08-05T15:01:00.322Z,17.96
2022-08-05T15:02:15.138Z,18.57
2022-08-05T15:03:17.886Z,17.65
2022-08-05T15:04:22.517Z,17.63
2022-08-05T15:05:30.022Z,17.44
2022-08-05T15:06:49.603Z,17.46
2022-08-05T15:08:08.792Z,17.66
2022-08-05T15:09:13.289Z,18.14
2022-08-05T15:10:17.162Z,18.25
2022-08-05T15:11:18.856Z,18.31
2022-08-05T15:12:21.153Z,18.26
2022-08-05T15:13:45.945Z,18.50
2022-08-05T15:14:49.987Z,18.51
2022-08-05T15:15:55.261Z,18.05
2022-08-05T15:16:57.753Z,17.37